sensor_id;sensor_type;location;lat;lon;timestamp;P1;P2;P0
43393;PMS5003;62479;62.642;17.954;2022-10-17T00:00:31;1;1;
43393;PMS5003;62479;62.642;17.954;2022-10-17T00:03:00;1;1;
43393;PMS5003;62479;62.642;17.954;2022-10-17T00:05:31;1;1;
43393;PMS5003;62479;62.642;17.954;2022-10-17T00:07:59;0;0;
43393;PMS5003;62479;62.642;17.954;2022-10-17T00:10:29;2;1;
43393;PMS5003;62479;62.642;17.954;2022-10-17T00:12:57;0;0;
43393;PMS5003;62479;62.642;17.954;2022-10-17T00:15:26;1;1;
43393;PMS5003;62479;62.642;17.954;2022-10-17T00:17:55;0;0;
43393;PMS5003;62479;62.642;17.954;2022-10-17T00:20:26;1;1;
43393;PMS5003;62479;62.642;17.954;2022-10-17T00:22:54;1;1;
43393;PMS5003;62479;62.642;17.954;2022-10-17T00:25:23;1;1;
43393;PMS5003;62479;62.642;17.954;2022-10-17T00:27:52;1;1;
43393;PMS5003;62479;62.642;17.954;2022-10-17T00:30:21;1;1;
43393;PMS5003;62479;62.642;17.954;2022-10-17T00:32:50;0;0;
43393;PMS5003;62479;62.642;17.954;2022-10-17T00:35:19;0;0;
43393;PMS5003;62479;62.642;17.954;2022-10-17T00:37:48;1;1;
43393;PMS5003;62479;62.642;17.954;2022-10-17T00:40:17;1;1;
43393;PMS5003;62479;62.642;17.954;2022-10-17T00:42:45;1;1;
43393;PMS5003;62479;62.642;17.954;2022-10-17T00:45:17;1;1;
43393;PMS5003;62479;62.642;17.954;2022-10-17T00:47:51;3;3;
43393;PMS5003;62479;62.642;17.954;2022-10-17T00:50:23;2;2;
43393;PMS5003;62479;62.642;17.954;2022-10-17T00:52:53;1;1;
43393;PMS5003;62479;62.642;17.954;2022-10-17T00:55:29;1;1;
43393;PMS5003;62479;62.642;17.954;2022-10-17T00:58:01;2;2;
43393;PMS5003;62479;62.642;17.954;2022-10-17T01:00:31;1;1;
43393;PMS5003;62479;62.642;17.954;2022-10-17T01:03:00;1;1;
43393;PMS5003;62479;62.642;17.954;2022-10-17T01:05:29;0;0;
43393;PMS5003;62479;62.642;17.954;2022-10-17T01:07:58;0;0;
43393;PMS5003;62479;62.642;17.954;2022-10-17T01:10:29;0;0;
43393;PMS5003;62479;62.642;17.954;2022-10-17T01:13:06;1;1;
43393;PMS5003;62479;62.642;17.954;2022-10-17T01:15:44;1;1;
43393;PMS5003;62479;62.642;17.954;2022-10-17T01:18:28;0;0;
43393;PMS5003;62479;62.642;17.954;2022-10-17T01:21:12;2;1;
43393;PMS5003;62479;62.642;17.954;2022-10-17T01:24:02;1;1;
43393;PMS5003;62479;62.642;17.954;2022-10-17T01:26:51;0;0;
43393;PMS5003;62479;62.642;17.954;2022-10-17T01:29:42;1;1;
43393;PMS5003;62479;62.642;17.954;2022-10-17T01:32:26;1;1;
43393;PMS5003;62479;62.642;17.954;2022-10-17T01:35:03;0;0;
43393;PMS5003;62479;62.642;17.954;2022-10-17T01:37:39;1;1;
43393;PMS5003;62479;62.642;17.954;2022-10-17T01:40:13;0;0;
43393;PMS5003;62479;62.642;17.954;2022-10-17T01:42:50;1;0;
43393;PMS5003;62479;62.642;17.954;2022-10-17T01:45:36;0;0;
43393;PMS5003;62479;62.642;17.954;2022-10-17T01:48:15;1;1;
43393;PMS5003;62479;62.642;17.954;2022-10-17T01:50:46;1;1;
43393;PMS5003;62479;62.642;17.954;2022-10-17T01:53:18;1;0;
43393;PMS5003;62479;62.642;17.954;2022-10-17T01:55:51;0;0;
43393;PMS5003;62479;62.642;17.954;2022-10-17T01:58:25;0;0;
43393;PMS5003;62479;62.642;17.954;2022-10-17T02:00:59;1;1;
43393;PMS5003;62479;62.642;17.954;2022-10-17T02:03:31;0;0;
43393;PMS5003;62479;62.642;17.954;2022-10-17T02:06:01;0;0;
43393;PMS5003;62479;62.642;17.954;2022-10-17T02:08:39;0;0;
43393;PMS5003;62479;62.642;17.954;2022-10-17T02:11:10;2;1;
43393;PMS5003;62479;62.642;17.954;2022-10-17T02:13:49;1;1;
43393;PMS5003;62479;62.642;17.954;2022-10-17T02:16:33;1;1;
43393;PMS5003;62479;62.642;17.954;2022-10-17T02:19:13;0;0;
43393;PMS5003;62479;62.642;17.954;2022-10-17T02:21:56;0;0;
43393;PMS5003;62479;62.642;17.954;2022-10-17T02:24:36;0;0;
43393;PMS5003;62479;62.642;17.954;2022-10-17T02:27:13;1;1;
43393;PMS5003;62479;62.642;17.954;2022-10-17T02:29:46;1;1;
43393;PMS5003;62479;62.642;17.954;2022-10-17T02:32:18;1;1;
43393;PMS5003;62479;62.642;17.954;2022-10-17T02:34:52;1;1;
43393;PMS5003;62479;62.642;17.954;2022-10-17T02:37:26;2;2;
43393;PMS5003;62479;62.642;17.954;2022-10-17T02:39:57;2;2;
43393;PMS5003;62479;62.642;17.954;2022-10-17T02:42:32;3;2;
43393;PMS5003;62479;62.642;17.954;2022-10-17T02:45:03;2;2;
43393;PMS5003;62479;62.642;17.954;2022-10-17T02:47:35;3;3;
43393;PMS5003;62479;62.642;17.954;2022-10-17T02:50:10;3;3;
43393;PMS5003;62479;62.642;17.954;2022-10-17T02:52:42;5;4;
43393;PMS5003;62479;62.642;17.954;2022-10-17T02:55:16;3;3;
43393;PMS5003;62479;62.642;17.954;2022-10-17T02:57:48;7;7;
43393;PMS5003;62479;62.642;17.954;2022-10-17T03:00:20;6;6;
43393;PMS5003;62479;62.642;17.954;2022-10-17T03:02:51;4;3;
43393;PMS5003;62479;62.642;17.954;2022-10-17T03:05:22;4;4;
43393;PMS5003;62479;62.642;17.954;2022-10-17T03:07:52;4;4;
43393;PMS5003;62479;62.642;17.954;2022-10-17T03:10:21;7;6;
43393;PMS5003;62479;62.642;17.954;2022-10-17T03:12:50;11;11;
43393;PMS5003;62479;62.642;17.954;2022-10-17T03:15:19;10;8;
43393;PMS5003;62479;62.642;17.954;2022-10-17T03:17:47;5;5;
43393;PMS5003;62479;62.642;17.954;2022-10-17T03:20:14;4;4;
43393;PMS5003;62479;62.642;17.954;2022-10-17T03:22:43;5;3;
43393;PMS5003;62479;62.642;17.954;2022-10-17T03:25:12;4;3;
43393;PMS5003;62479;62.642;17.954;2022-10-17T03:27:41;4;4;
43393;PMS5003;62479;62.642;17.954;2022-10-17T03:30:11;3;3;
43393;PMS5003;62479;62.642;17.954;2022-10-17T03:32:39;3;3;
43393;PMS5003;62479;62.642;17.954;2022-10-17T03:35:09;6;5;
43393;PMS5003;62479;62.642;17.954;2022-10-17T03:37:37;19;19;
43393;PMS5003;62479;62.642;17.954;2022-10-17T03:40:06;21;19;
43393;PMS5003;62479;62.642;17.954;2022-10-17T03:42:36;21;21;
43393;PMS5003;62479;62.642;17.954;2022-10-17T03:45:06;4;4;
43393;PMS5003;62479;62.642;17.954;2022-10-17T03:47:35;1;1;
43393;PMS5003;62479;62.642;17.954;2022-10-17T03:50:04;0;0;
43393;PMS5003;62479;62.642;17.954;2022-10-17T03:52:35;1;1;
43393;PMS5003;62479;62.642;17.954;2022-10-17T03:55:04;0;0;
43393;PMS5003;62479;62.642;17.954;2022-10-17T03:57:33;0;0;
43393;PMS5003;62479;62.642;17.954;2022-10-17T04:03:25;0;0;
43393;PMS5003;62479;62.642;17.954;2022-10-17T04:05:57;0;0;
43393;PMS5003;62479;62.642;17.954;2022-10-17T04:08:25;0;0;
43393;PMS5003;62479;62.642;17.954;2022-10-17T04:10:56;0;0;
43393;PMS5003;62479;62.642;17.954;2022-10-17T04:13:26;0;0;
43393;PMS5003;62479;62.642;17.954;2022-10-17T04:15:58;0;0;
43393;PMS5003;62479;62.642;17.954;2022-10-17T04:18:27;0;0;
43393;PMS5003;62479;62.642;17.954;2022-10-17T04:20:56;0;0;
43393;PMS5003;62479;62.642;17.954;2022-10-17T04:23:25;0;0;
43393;PMS5003;62479;62.642;17.954;2022-10-17T04:25:54;0;0;
43393;PMS5003;62479;62.642;17.954;2022-10-17T04:28:23;0;0;
43393;PMS5003;62479;62.642;17.954;2022-10-17T04:30:55;0;0;
43393;PMS5003;62479;62.642;17.954;2022-10-17T04:33:24;0;0;
43393;PMS5003;62479;62.642;17.954;2022-10-17T04:35:55;0;0;
43393;PMS5003;62479;62.642;17.954;2022-10-17T04:38:23;1;1;
43393;PMS5003;62479;62.642;17.954;2022-10-17T04:40:52;1;1;
43393;PMS5003;62479;62.642;17.954;2022-10-17T04:43:21;0;0;
43393;PMS5003;62479;62.642;17.954;2022-10-17T04:45:50;0;0;
43393;PMS5003;62479;62.642;17.954;2022-10-17T04:48:19;0;0;
43393;PMS5003;62479;62.642;17.954;2022-10-17T04:50:56;0;0;
43393;PMS5003;62479;62.642;17.954;2022-10-17T04:53:25;0;0;
43393;PMS5003;62479;62.642;17.954;2022-10-17T04:55:58;0;0;
43393;PMS5003;62479;62.642;17.954;2022-10-17T04:58:27;0;0;
43393;PMS5003;62479;62.642;17.954;2022-10-17T05:00:57;0;0;
43393;PMS5003;62479;62.642;17.954;2022-10-17T05:03:26;0;0;
43393;PMS5003;62479;62.642;17.954;2022-10-17T05:05:55;0;0;
43393;PMS5003;62479;62.642;17.954;2022-10-17T05:08:24;0;0;
43393;PMS5003;62479;62.642;17.954;2022-10-17T05:10:53;0;0;
43393;PMS5003;62479;62.642;17.954;2022-10-17T05:13:22;0;0;
43393;PMS5003;62479;62.642;17.954;2022-10-17T05:15:51;0;0;
43393;PMS5003;62479;62.642;17.954;2022-10-17T05:18:19;0;0;
43393;PMS5003;62479;62.642;17.954;2022-10-17T05:20:48;1;0;
43393;PMS5003;62479;62.642;17.954;2022-10-17T05:23:17;0;0;
43393;PMS5003;62479;62.642;17.954;2022-10-17T05:25:46;0;0;
43393;PMS5003;62479;62.642;17.954;2022-10-17T05:28:15;1;1;
43393;PMS5003;62479;62.642;17.954;2022-10-17T05:30:44;1;1;
43393;PMS5003;62479;62.642;17.954;2022-10-17T05:33:13;0;0;
43393;PMS5003;62479;62.642;17.954;2022-10-17T05:35:41;0;0;
43393;PMS5003;62479;62.642;17.954;2022-10-17T05:38:10;0;0;
43393;PMS5003;62479;62.642;17.954;2022-10-17T05:40:39;0;0;
43393;PMS5003;62479;62.642;17.954;2022-10-17T05:43:08;0;0;
43393;PMS5003;62479;62.642;17.954;2022-10-17T05:45:37;0;0;
43393;PMS5003;62479;62.642;17.954;2022-10-17T05:48:06;0;0;
43393;PMS5003;62479;62.642;17.954;2022-10-17T05:50:35;0;0;
43393;PMS5003;62479;62.642;17.954;2022-10-17T05:53:04;0;0;
43393;PMS5003;62479;62.642;17.954;2022-10-17T05:55:33;0;0;
43393;PMS5003;62479;62.642;17.954;2022-10-17T05:58:01;0;0;
43393;PMS5003;62479;62.642;17.954;2022-10-17T06:00:31;0;0;
43393;PMS5003;62479;62.642;17.954;2022-10-17T06:03:01;1;1;
43393;PMS5003;62479;62.642;17.954;2022-10-17T06:05:30;1;1;
43393;PMS5003;62479;62.642;17.954;2022-10-17T06:07:59;0;0;
43393;PMS5003;62479;62.642;17.954;2022-10-17T06:10:27;0;0;
43393;PMS5003;62479;62.642;17.954;2022-10-17T06:12:56;0;0;
43393;PMS5003;62479;62.642;17.954;2022-10-17T06:15:26;0;0;
43393;PMS5003;62479;62.642;17.954;2022-10-17T06:17:54;0;0;
43393;PMS5003;62479;62.642;17.954;2022-10-17T06:20:23;0;0;
43393;PMS5003;62479;62.642;17.954;2022-10-17T06:22:52;0;0;
43393;PMS5003;62479;62.642;17.954;2022-10-17T06:25:21;0;0;
43393;PMS5003;62479;62.642;17.954;2022-10-17T06:27:50;0;0;
43393;PMS5003;62479;62.642;17.954;2022-10-17T06:30:19;0;0;
43393;PMS5003;62479;62.642;17.954;2022-10-17T06:32:47;0;0;
43393;PMS5003;62479;62.642;17.954;2022-10-17T06:35:16;0;0;
43393;PMS5003;62479;62.642;17.954;2022-10-17T06:37:45;0;0;
43393;PMS5003;62479;62.642;17.954;2022-10-17T06:40:14;0;0;
43393;PMS5003;62479;62.642;17.954;2022-10-17T06:42:45;0;0;
43393;PMS5003;62479;62.642;17.954;2022-10-17T06:45:14;0;0;
43393;PMS5003;62479;62.642;17.954;2022-10-17T06:47:43;0;0;
43393;PMS5003;62479;62.642;17.954;2022-10-17T06:50:11;0;0;
43393;PMS5003;62479;62.642;17.954;2022-10-17T06:52:40;1;0;
43393;PMS5003;62479;62.642;17.954;2022-10-17T06:55:09;0;0;
43393;PMS5003;62479;62.642;17.954;2022-10-17T06:57:38;2;1;
43393;PMS5003;62479;62.642;17.954;2022-10-17T07:00:08;0;0;
43393;PMS5003;62479;62.642;17.954;2022-10-17T07:02:38;1;1;
43393;PMS5003;62479;62.642;17.954;2022-10-17T07:05:07;0;0;
43393;PMS5003;62479;62.642;17.954;2022-10-17T07:07:36;0;0;
43393;PMS5003;62479;62.642;17.954;2022-10-17T07:10:05;1;1;
43393;PMS5003;62479;62.642;17.954;2022-10-17T07:12:34;0;0;
43393;PMS5003;62479;62.642;17.954;2022-10-17T07:15:03;1;0;
43393;PMS5003;62479;62.642;17.954;2022-10-17T07:17:33;0;0;
43393;PMS5003;62479;62.642;17.954;2022-10-17T07:20:02;0;0;
43393;PMS5003;62479;62.642;17.954;2022-10-17T07:22:31;1;1;
43393;PMS5003;62479;62.642;17.954;2022-10-17T07:25:00;1;0;
43393;PMS5003;62479;62.642;17.954;2022-10-17T07:27:29;1;0;
43393;PMS5003;62479;62.642;17.954;2022-10-17T07:29:58;0;0;
43393;PMS5003;62479;62.642;17.954;2022-10-17T07:32:27;0;0;
43393;PMS5003;62479;62.642;17.954;2022-10-17T07:34:56;0;0;
43393;PMS5003;62479;62.642;17.954;2022-10-17T07:37:25;0;0;
43393;PMS5003;62479;62.642;17.954;2022-10-17T07:39:54;0;0;
43393;PMS5003;62479;62.642;17.954;2022-10-17T07:42:23;0;0;
43393;PMS5003;62479;62.642;17.954;2022-10-17T07:44:53;1;1;
43393;PMS5003;62479;62.642;17.954;2022-10-17T07:47:22;1;0;
43393;PMS5003;62479;62.642;17.954;2022-10-17T07:49:51;1;1;
43393;PMS5003;62479;62.642;17.954;2022-10-17T07:52:20;1;0;
43393;PMS5003;62479;62.642;17.954;2022-10-17T07:54:51;0;0;
43393;PMS5003;62479;62.642;17.954;2022-10-17T07:57:20;0;0;
43393;PMS5003;62479;62.642;17.954;2022-10-17T07:59:48;4;4;
43393;PMS5003;62479;62.642;17.954;2022-10-17T08:02:20;2;2;
43393;PMS5003;62479;62.642;17.954;2022-10-17T08:04:50;1;1;
43393;PMS5003;62479;62.642;17.954;2022-10-17T08:07:28;1;1;
43393;PMS5003;62479;62.642;17.954;2022-10-17T08:09:58;0;0;
43393;PMS5003;62479;62.642;17.954;2022-10-17T08:12:27;1;1;
43393;PMS5003;62479;62.642;17.954;2022-10-17T08:14:56;0;0;
43393;PMS5003;62479;62.642;17.954;2022-10-17T08:17:25;0;0;
43393;PMS5003;62479;62.642;17.954;2022-10-17T08:19:54;0;0;
43393;PMS5003;62479;62.642;17.954;2022-10-17T08:22:23;0;0;
43393;PMS5003;62479;62.642;17.954;2022-10-17T08:24:53;0;0;
43393;PMS5003;62479;62.642;17.954;2022-10-17T08:27:22;0;0;
43393;PMS5003;62479;62.642;17.954;2022-10-17T08:29:50;1;0;
43393;PMS5003;62479;62.642;17.954;2022-10-17T08:32:20;0;0;
43393;PMS5003;62479;62.642;17.954;2022-10-17T08:34:52;0;0;
43393;PMS5003;62479;62.642;17.954;2022-10-17T08:37:22;0;0;
43393;PMS5003;62479;62.642;17.954;2022-10-17T08:39:51;0;0;
43393;PMS5003;62479;62.642;17.954;2022-10-17T08:42:28;0;0;
43393;PMS5003;62479;62.642;17.954;2022-10-17T08:45:12;0;0;
43393;PMS5003;62479;62.642;17.954;2022-10-17T08:47:50;0;0;
43393;PMS5003;62479;62.642;17.954;2022-10-17T08:50:23;0;0;
43393;PMS5003;62479;62.642;17.954;2022-10-17T08:53:00;0;0;
43393;PMS5003;62479;62.642;17.954;2022-10-17T08:55:35;0;0;
43393;PMS5003;62479;62.642;17.954;2022-10-17T08:58:11;0;0;
43393;PMS5003;62479;62.642;17.954;2022-10-17T09:00:42;0;0;
43393;PMS5003;62479;62.642;17.954;2022-10-17T09:03:21;1;1;
43393;PMS5003;62479;62.642;17.954;2022-10-17T09:06:07;0;0;
43393;PMS5003;62479;62.642;17.954;2022-10-17T09:08:45;0;0;
43393;PMS5003;62479;62.642;17.954;2022-10-17T09:11:55;0;0;
43393;PMS5003;62479;62.642;17.954;2022-10-17T09:14:39;0;0;
43393;PMS5003;62479;62.642;17.954;2022-10-17T09:17:25;0;0;
43393;PMS5003;62479;62.642;17.954;2022-10-17T09:20:03;0;0;
43393;PMS5003;62479;62.642;17.954;2022-10-17T09:22:40;1;1;
43393;PMS5003;62479;62.642;17.954;2022-10-17T09:25:16;1;1;
43393;PMS5003;62479;62.642;17.954;2022-10-17T09:27:47;0;0;
43393;PMS5003;62479;62.642;17.954;2022-10-17T09:30:22;0;0;
43393;PMS5003;62479;62.642;17.954;2022-10-17T09:32:57;1;1;
43393;PMS5003;62479;62.642;17.954;2022-10-17T09:35:26;0;0;
43393;PMS5003;62479;62.642;17.954;2022-10-17T09:37:56;0;0;
43393;PMS5003;62479;62.642;17.954;2022-10-17T09:40:26;1;0;
43393;PMS5003;62479;62.642;17.954;2022-10-17T09:42:59;1;1;
43393;PMS5003;62479;62.642;17.954;2022-10-17T09:45:29;2;2;
43393;PMS5003;62479;62.642;17.954;2022-10-17T09:48:06;0;0;
43393;PMS5003;62479;62.642;17.954;2022-10-17T09:50:39;0;0;
43393;PMS5003;62479;62.642;17.954;2022-10-17T09:53:09;1;1;
43393;PMS5003;62479;62.642;17.954;2022-10-17T09:55:42;1;1;
43393;PMS5003;62479;62.642;17.954;2022-10-17T09:58:14;1;1;
43393;PMS5003;62479;62.642;17.954;2022-10-17T10:03:25;0;0;
43393;PMS5003;62479;62.642;17.954;2022-10-17T10:05:59;0;0;
43393;PMS5003;62479;62.642;17.954;2022-10-17T10:08:31;0;0;
43393;PMS5003;62479;62.642;17.954;2022-10-17T10:11:03;0;0;
43393;PMS5003;62479;62.642;17.954;2022-10-17T10:13:34;0;0;
43393;PMS5003;62479;62.642;17.954;2022-10-17T10:16:20;0;0;
43393;PMS5003;62479;62.642;17.954;2022-10-17T10:18:56;1;1;
43393;PMS5003;62479;62.642;17.954;2022-10-17T10:21:25;0;0;
43393;PMS5003;62479;62.642;17.954;2022-10-17T10:24:04;0;0;
43393;PMS5003;62479;62.642;17.954;2022-10-17T10:26:38;1;1;
43393;PMS5003;62479;62.642;17.954;2022-10-17T10:29:21;1;0;
43393;PMS5003;62479;62.642;17.954;2022-10-17T10:31:54;1;1;
43393;PMS5003;62479;62.642;17.954;2022-10-17T10:34:25;0;0;
43393;PMS5003;62479;62.642;17.954;2022-10-17T10:36:58;0;0;
43393;PMS5003;62479;62.642;17.954;2022-10-17T10:39:31;0;0;
43393;PMS5003;62479;62.642;17.954;2022-10-17T10:42:04;3;3;
43393;PMS5003;62479;62.642;17.954;2022-10-17T10:44:35;0;0;
43393;PMS5003;62479;62.642;17.954;2022-10-17T10:47:06;0;0;
43393;PMS5003;62479;62.642;17.954;2022-10-17T10:49:44;0;0;
43393;PMS5003;62479;62.642;17.954;2022-10-17T10:52:23;0;0;
43393;PMS5003;62479;62.642;17.954;2022-10-17T10:55:02;0;0;
43393;PMS5003;62479;62.642;17.954;2022-10-17T10:57:41;0;0;
43393;PMS5003;62479;62.642;17.954;2022-10-17T11:00:18;0;0;
43393;PMS5003;62479;62.642;17.954;2022-10-17T11:02:55;0;0;
43393;PMS5003;62479;62.642;17.954;2022-10-17T11:05:35;0;0;
43393;PMS5003;62479;62.642;17.954;2022-10-17T11:08:12;0;0;
43393;PMS5003;62479;62.642;17.954;2022-10-17T11:10:51;0;0;
43393;PMS5003;62479;62.642;17.954;2022-10-17T11:13:28;0;0;
43393;PMS5003;62479;62.642;17.954;2022-10-17T11:16:03;0;0;
43393;PMS5003;62479;62.642;17.954;2022-10-17T11:18:49;0;0;
43393;PMS5003;62479;62.642;17.954;2022-10-17T11:21:26;0;0;
43393;PMS5003;62479;62.642;17.954;2022-10-17T11:24:06;0;0;
43393;PMS5003;62479;62.642;17.954;2022-10-17T11:26:44;0;0;
43393;PMS5003;62479;62.642;17.954;2022-10-17T11:29:17;1;0;
43393;PMS5003;62479;62.642;17.954;2022-10-17T11:31:47;1;1;
43393;PMS5003;62479;62.642;17.954;2022-10-17T11:34:21;0;0;
43393;PMS5003;62479;62.642;17.954;2022-10-17T11:36:55;0;0;
43393;PMS5003;62479;62.642;17.954;2022-10-17T11:39:28;0;0;
43393;PMS5003;62479;62.642;17.954;2022-10-17T11:42:02;0;0;
43393;PMS5003;62479;62.642;17.954;2022-10-17T11:44:36;0;0;
43393;PMS5003;62479;62.642;17.954;2022-10-17T11:47:06;0;0;
43393;PMS5003;62479;62.642;17.954;2022-10-17T11:49:50;0;0;
43393;PMS5003;62479;62.642;17.954;2022-10-17T11:52:32;1;1;
43393;PMS5003;62479;62.642;17.954;2022-10-17T11:55:09;0;0;
43393;PMS5003;62479;62.642;17.954;2022-10-17T11:57:45;0;0;
43393;PMS5003;62479;62.642;17.954;2022-10-17T12:00:23;0;0;
43393;PMS5003;62479;62.642;17.954;2022-10-17T12:03:02;0;0;
43393;PMS5003;62479;62.642;17.954;2022-10-17T12:05:40;0;0;
43393;PMS5003;62479;62.642;17.954;2022-10-17T12:08:19;0;0;
43393;PMS5003;62479;62.642;17.954;2022-10-17T12:10:54;0;0;
43393;PMS5003;62479;62.642;17.954;2022-10-17T12:13:49;0;0;
43393;PMS5003;62479;62.642;17.954;2022-10-17T12:16:36;0;0;
43393;PMS5003;62479;62.642;17.954;2022-10-17T12:19:19;0;0;
43393;PMS5003;62479;62.642;17.954;2022-10-17T12:21:53;0;0;
43393;PMS5003;62479;62.642;17.954;2022-10-17T12:24:31;0;0;
43393;PMS5003;62479;62.642;17.954;2022-10-17T12:28:10;0;0;
43393;PMS5003;62479;62.642;17.954;2022-10-17T12:30:49;0;0;
43393;PMS5003;62479;62.642;17.954;2022-10-17T12:33:20;1;1;
43393;PMS5003;62479;62.642;17.954;2022-10-17T12:39:40;7;5;
43393;PMS5003;62479;62.642;17.954;2022-10-17T12:42:28;5;5;
43393;PMS5003;62479;62.642;17.954;2022-10-17T12:44:58;0;0;
43393;PMS5003;62479;62.642;17.954;2022-10-17T12:47:28;0;0;
43393;PMS5003;62479;62.642;17.954;2022-10-17T12:51:12;0;0;
43393;PMS5003;62479;62.642;17.954;2022-10-17T12:53:45;0;0;
43393;PMS5003;62479;62.642;17.954;2022-10-17T12:56:19;2;1;
43393;PMS5003;62479;62.642;17.954;2022-10-17T12:58:58;0;0;
43393;PMS5003;62479;62.642;17.954;2022-10-17T13:01:27;0;0;
43393;PMS5003;62479;62.642;17.954;2022-10-17T13:03:59;0;0;
43393;PMS5003;62479;62.642;17.954;2022-10-17T13:06:30;0;0;
43393;PMS5003;62479;62.642;17.954;2022-10-17T13:09:03;0;0;
43393;PMS5003;62479;62.642;17.954;2022-10-17T13:11:35;0;0;
43393;PMS5003;62479;62.642;17.954;2022-10-17T13:14:09;0;0;
43393;PMS5003;62479;62.642;17.954;2022-10-17T13:16:50;0;0;
43393;PMS5003;62479;62.642;17.954;2022-10-17T13:19:28;0;0;
43393;PMS5003;62479;62.642;17.954;2022-10-17T13:55:13;4;3;
43393;PMS5003;62479;62.642;17.954;2022-10-17T14:00:39;1;0;
43393;PMS5003;62479;62.642;17.954;2022-10-17T16:31:51;2;2;
43393;PMS5003;62479;62.642;17.954;2022-10-17T17:11:50;3;3;
43393;PMS5003;62479;62.642;17.954;2022-10-17T17:19:20;4;4;
43393;PMS5003;62479;62.642;17.954;2022-10-17T17:21:48;5;5;
43393;PMS5003;62479;62.642;17.954;2022-10-17T17:24:17;7;6;
43393;PMS5003;62479;62.642;17.954;2022-10-17T17:26:49;8;6;
43393;PMS5003;62479;62.642;17.954;2022-10-17T17:29:18;6;6;
43393;PMS5003;62479;62.642;17.954;2022-10-17T17:29:20;6;6;
43393;PMS5003;62479;62.642;17.954;2022-10-17T17:31:51;5;5;
43393;PMS5003;62479;62.642;17.954;2022-10-17T17:34:21;5;4;
43393;PMS5003;62479;62.642;17.954;2022-10-17T17:36:51;6;6;
43393;PMS5003;62479;62.642;17.954;2022-10-17T17:39:21;6;6;
43393;PMS5003;62479;62.642;17.954;2022-10-17T17:41:50;8;7;
43393;PMS5003;62479;62.642;17.954;2022-10-17T17:44:19;6;5;
43393;PMS5003;62479;62.642;17.954;2022-10-17T17:46:49;6;6;
43393;PMS5003;62479;62.642;17.954;2022-10-17T17:49:17;7;6;
43393;PMS5003;62479;62.642;17.954;2022-10-17T17:51:46;5;5;
43393;PMS5003;62479;62.642;17.954;2022-10-17T17:54:15;5;5;
43393;PMS5003;62479;62.642;17.954;2022-10-17T17:56:43;7;7;
43393;PMS5003;62479;62.642;17.954;2022-10-17T17:59:11;9;8;
43393;PMS5003;62479;62.642;17.954;2022-10-17T18:01:41;8;8;
43393;PMS5003;62479;62.642;17.954;2022-10-17T18:04:11;8;7;
43393;PMS5003;62479;62.642;17.954;2022-10-17T18:06:40;8;8;
43393;PMS5003;62479;62.642;17.954;2022-10-17T18:09:09;6;6;
43393;PMS5003;62479;62.642;17.954;2022-10-17T18:11:38;7;6;
43393;PMS5003;62479;62.642;17.954;2022-10-17T18:14:09;6;5;
43393;PMS5003;62479;62.642;17.954;2022-10-17T18:16:40;8;7;
43393;PMS5003;62479;62.642;17.954;2022-10-17T18:19:09;6;5;
43393;PMS5003;62479;62.642;17.954;2022-10-17T18:21:37;8;8;
43393;PMS5003;62479;62.642;17.954;2022-10-17T18:24:06;8;7;
43393;PMS5003;62479;62.642;17.954;2022-10-17T18:26:36;6;5;
43393;PMS5003;62479;62.642;17.954;2022-10-17T18:29:04;7;7;
43393;PMS5003;62479;62.642;17.954;2022-10-17T18:31:33;8;7;
43393;PMS5003;62479;62.642;17.954;2022-10-17T18:34:03;8;8;
43393;PMS5003;62479;62.642;17.954;2022-10-17T18:36:32;20;19;
43393;PMS5003;62479;62.642;17.954;2022-10-17T18:39:02;12;11;
43393;PMS5003;62479;62.642;17.954;2022-10-17T18:41:32;18;18;
43393;PMS5003;62479;62.642;17.954;2022-10-17T18:44:01;15;15;
43393;PMS5003;62479;62.642;17.954;2022-10-17T18:46:34;12;12;
43393;PMS5003;62479;62.642;17.954;2022-10-17T18:49:03;12;12;
43393;PMS5003;62479;62.642;17.954;2022-10-17T18:51:32;11;10;
43393;PMS5003;62479;62.642;17.954;2022-10-17T18:54:01;12;12;
43393;PMS5003;62479;62.642;17.954;2022-10-17T18:56:30;21;19;
43393;PMS5003;62479;62.642;17.954;2022-10-17T18:58:58;28;24;
43393;PMS5003;62479;62.642;17.954;2022-10-17T19:01:28;16;16;
43393;PMS5003;62479;62.642;17.954;2022-10-17T19:03:57;17;16;
43393;PMS5003;62479;62.642;17.954;2022-10-17T19:06:27;13;12;
43393;PMS5003;62479;62.642;17.954;2022-10-17T19:08:57;14;11;
43393;PMS5003;62479;62.642;17.954;2022-10-17T19:11:30;10;10;
43393;PMS5003;62479;62.642;17.954;2022-10-17T19:14:00;11;11;
43393;PMS5003;62479;62.642;17.954;2022-10-17T19:16:31;11;10;
43393;PMS5003;62479;62.642;17.954;2022-10-17T19:19:02;14;13;
43393;PMS5003;62479;62.642;17.954;2022-10-17T19:21:33;11;10;
43393;PMS5003;62479;62.642;17.954;2022-10-17T19:24:03;10;10;
43393;PMS5003;62479;62.642;17.954;2022-10-17T19:26:34;10;9;
43393;PMS5003;62479;62.642;17.954;2022-10-17T19:29:05;10;10;
43393;PMS5003;62479;62.642;17.954;2022-10-17T19:31:34;9;9;
43393;PMS5003;62479;62.642;17.954;2022-10-17T19:34:03;9;8;
43393;PMS5003;62479;62.642;17.954;2022-10-17T19:36:33;9;7;
43393;PMS5003;62479;62.642;17.954;2022-10-17T19:39:04;5;5;
43393;PMS5003;62479;62.642;17.954;2022-10-17T19:41:34;3;3;
43393;PMS5003;62479;62.642;17.954;2022-10-17T19:44:02;4;4;
43393;PMS5003;62479;62.642;17.954;2022-10-17T19:46:31;3;3;
43393;PMS5003;62479;62.642;17.954;2022-10-17T19:49:00;3;3;
43393;PMS5003;62479;62.642;17.954;2022-10-17T19:51:31;5;4;
43393;PMS5003;62479;62.642;17.954;2022-10-17T19:54:01;6;6;
43393;PMS5003;62479;62.642;17.954;2022-10-17T19:56:31;7;7;
43393;PMS5003;62479;62.642;17.954;2022-10-17T19:59:01;14;14;
43393;PMS5003;62479;62.642;17.954;2022-10-17T20:01:33;17;17;
43393;PMS5003;62479;62.642;17.954;2022-10-17T20:04:03;19;19;
43393;PMS5003;62479;62.642;17.954;2022-10-17T20:06:32;18;17;
43393;PMS5003;62479;62.642;17.954;2022-10-17T20:09:02;23;20;
43393;PMS5003;62479;62.642;17.954;2022-10-17T20:11:31;18;18;
43393;PMS5003;62479;62.642;17.954;2022-10-17T20:14:01;19;18;
43393;PMS5003;62479;62.642;17.954;2022-10-17T20:16:31;21;19;
43393;PMS5003;62479;62.642;17.954;2022-10-17T20:19:02;14;14;
43393;PMS5003;62479;62.642;17.954;2022-10-17T20:21:32;9;8;
43393;PMS5003;62479;62.642;17.954;2022-10-17T20:24:02;16;13;
43393;PMS5003;62479;62.642;17.954;2022-10-17T20:26:33;17;16;
43393;PMS5003;62479;62.642;17.954;2022-10-17T20:29:02;13;12;
43393;PMS5003;62479;62.642;17.954;2022-10-17T20:31:33;17;16;
43393;PMS5003;62479;62.642;17.954;2022-10-17T20:34:03;13;13;
43393;PMS5003;62479;62.642;17.954;2022-10-17T20:36:31;12;10;
43393;PMS5003;62479;62.642;17.954;2022-10-17T20:39:01;9;9;
43393;PMS5003;62479;62.642;17.954;2022-10-17T20:41:30;9;9;
43393;PMS5003;62479;62.642;17.954;2022-10-17T20:44:00;8;8;
43393;PMS5003;62479;62.642;17.954;2022-10-17T20:46:29;7;7;
43393;PMS5003;62479;62.642;17.954;2022-10-17T20:48:58;9;9;
43393;PMS5003;62479;62.642;17.954;2022-10-17T20:51:27;9;9;
43393;PMS5003;62479;62.642;17.954;2022-10-17T20:53:57;9;8;
43393;PMS5003;62479;62.642;17.954;2022-10-17T20:56:27;9;8;
43393;PMS5003;62479;62.642;17.954;2022-10-17T20:58:57;9;8;